Ballston Lake, NY

4:18 PM EST on December 13, 2019 (GMT -0500)
Ballston Lake | | Change Station
Active Advisory: Winter Weather Advisory

Elev 344 ft 42.89 °N, 73.87 °W | Updated 1 minute ago

Overcast
Overcast
33.6 °F
Feels Like 34 °F
N
1.6
Wind Variable Wind from ENE
Gusts 3.4 mph

Today
High -- | Low -- °F
--% Chance of Precip.
Yesterday
High -- | Low -- °F
Precip. -- in
Pressure 30.26 in
Visibility 15.0 miles
Clouds Overcast 1500 ft
Windchill 34 °F
Dew Point 28 °F
Humidity 80%
Rainfall 0.00 in
Snow Depth Not available.
7:17 AM 4:21 PM
Full, 97% visible
METAR KSCH 131946Z 09004KT 15SM OVC015 02/M02 A3026
Pressure 30.26 in
Visibility 15.0 miles
Clouds Overcast 1500 ft
Windchill 34 °F
Dew Point 28 °F
Humidity 80%
Rainfall 0.00 in
Snow Depth Not available.
7:17 AM 4:21 PM
Full, 97% visible
METAR KSCH 131946Z 09004KT 15SM OVC015 02/M02 A3026

Get Your Daily Forecast Email!

Thanks for signing up!

Be on the lookout for a verification email in your inbox.

You'll start receiving severe weather alerts in your inbox..

×

10-Day Weather Forecast

Almanac

Astronomy

Dec. 13, 2019 Rise Set
Actual Time
Civil Twilight
Nautical Twilight
Astronomical Twilight
Moon
Length of Visible Light
Length of Day
Tomorrow will be .
, % of the Moon is Illuminated

Today's Extremes

State Highs State Lows

Community

WunderPhotos

Category 6

Welcome to Category 6. This is the collective home for Weather Underground's featured writeups by Dr. Jeff Masters (right), Bob Henson (left), Chris Burt, and other regular contributors.

Nearby

Air Quality

  Air Quality AQ Index Pollutant
Not available.

Snow Depth

Station Depth Elevation

Earthquake Activity

City Distance Mag. Time & Date
Minimum magnitude displayed is 2.5.

Coastal Water Temperatures

Place Temperature

Stations

Nearby Weather Stations

Station Location Temp. Windchill Dew Point Humidity Wind Precip. Elev Updated Type
                   

Watches & Warnings

Winter Weather Advisory
Issued: 3:15 PM EST Dec. 13, 2019 – National Weather Service

... Winter Weather Advisory remains in effect until 10 PM EST this
evening...

* what... light freezing rain. Total ice accumulations of a light
glaze.

* Where... Berkshires, Litchfield Hills, Mohawk and Schoharie
valleys, helderbergs, Lake George Saratoga region and northern
portions of the capital district.

* When... until 10 PM EST this evening.

* Impacts... very slippery sidewalks, roads and bridges are
possible. The hazardous conditions could impact the evening
commute.

* Additional details... light freezing rain will change to plain
rain as temperatures rise above freezing this evening.

Precautionary/preparedness actions...

Slow down and use caution while traveling.